Delta Virtual Airport Information Service

Punta Cana International Airport

ICAO: MDPC Country: Dominican Republic
Latitude: 18.5674 Longitude: -68.3634
Latest Arrival : DAC6996 (SBGL-MDPC) Latest Departure : DAC6996 (MDPC-KMCO)


WX CaptureLIVE
Data provided by noaa.gov | Fetched at 17:20:45

METAR : MDPC 242200Z 17008KT 120V190 9999 FEW020CB FEW021 SCT300 28/23 Q1014 CB/NW DISPT

TAF : MDPC 241600Z 2418/2518 12015KT 9999 SCT025 PROB30 2418/2422 8000 -RA BKN018


Runway Data for MDPC
Data provided by openaviationdata.com

Runway ID Mag Var Hdg Length Elevation Surface ILS Freq ILS Id ILS Slope
9 -12 96° 10171 ft 47 ft Asphalt -- -- --
27 -12 276° 10171 ft 47 ft Asphalt -- -- --

Punta Cana International Airport, Dominican Republic
Use only for reference purposes



Not for navigational purposes.